AUA64C LDDU-LOWW
Flight info
| Callsign | AUA64C |
|---|---|
| Flight time | N/A |
| Altitude | 36000 |
| Route | MADOS L187 GEBNI DCT OBUTI OBUTI2W |
| Aircraft | A321/M-SDE3FGHIRWY/LB1 |
Departure
| Time | 2026-05-05 10:36 |
|---|---|
| Airport | Dubrovnik Ruđer Bošković Airport (LDDU) |
Arrival
| Time | N/A |
|---|---|
| Airport | Vienna International Airport (LOWW) |
| Time | Latitude | Longitude | Altitude | Speed | Heading |
|---|---|---|---|---|---|
| 2026-05-05 10:00 | 42.56128 | 18.26201 | 534 ft | 0 kts | 208° |
| 2026-05-05 10:24 | 42.56132 | 18.26204 | 534 ft | 4 kts | 208° |
| 2026-05-05 10:25 | 42.56155 | 18.26221 | 534 ft | 2 kts | 208° |
| 2026-05-05 10:25 | 42.56172 | 18.26236 | 534 ft | 4 kts | 245° |
| 2026-05-05 10:25 | 42.56172 | 18.26261 | 534 ft | 3 kts | 298° |
| 2026-05-05 10:25 | 42.56162 | 18.26286 | 534 ft | 0 kts | 298° |
| 2026-05-05 10:28 | 42.56181 | 18.26241 | 534 ft | 18 kts | 298° |
| 2026-05-05 10:28 | 42.56263 | 18.26034 | 534 ft | 27 kts | 297° |
| 2026-05-05 10:29 | 42.56350 | 18.25813 | 534 ft | 26 kts | 298° |
| 2026-05-05 10:29 | 42.56436 | 18.25598 | 534 ft | 26 kts | 298° |
| 2026-05-05 10:29 | 42.56513 | 18.25403 | 534 ft | 17 kts | 298° |
| 2026-05-05 10:29 | 42.56568 | 18.25266 | 534 ft | 16 kts | 299° |
| 2026-05-05 10:30 | 42.56621 | 18.25133 | 534 ft | 16 kts | 297° |
| 2026-05-05 10:30 | 42.56671 | 18.25007 | 534 ft | 15 kts | 298° |
| 2026-05-05 10:30 | 42.56718 | 18.24887 | 534 ft | 14 kts | 298° |
| 2026-05-05 10:30 | 42.56763 | 18.24776 | 534 ft | 13 kts | 299° |
| 2026-05-05 10:31 | 42.56799 | 18.24706 | 534 ft | 0 kts | 320° |
| 2026-05-05 10:31 | 42.56800 | 18.24705 | 534 ft | 0 kts | 320° |
| 2026-05-05 10:34 | 42.56836 | 18.24677 | 534 ft | 17 kts | 339° |
| 2026-05-05 10:34 | 42.56936 | 18.24791 | 533 ft | 20 kts | 99° |
| 2026-05-05 10:35 | 42.56918 | 18.24850 | 533 ft | 0 kts | 121° |
| 2026-05-05 10:35 | 42.56918 | 18.24851 | 533 ft | 0 kts | 119° |
| 2026-05-05 10:36 | 42.56886 | 18.24929 | 533 ft | 36 kts | 119° |
| 2026-05-05 10:36 | 42.56647 | 18.25531 | 534 ft | 105 kts | 118° |
| 2026-05-05 10:36 | 42.56214 | 18.26614 | 535 ft | 154 kts | 118° |
| 2026-05-05 10:36 | 42.55720 | 18.27876 | 1286 ft | 147 kts | 120° |
| 2026-05-05 10:37 | 42.55238 | 18.29116 | 2032 ft | 155 kts | 115° |
| 2026-05-05 10:37 | 42.54710 | 18.30477 | 2661 ft | 171 kts | 120° |
| 2026-05-05 10:37 | 42.54138 | 18.31943 | 3252 ft | 180 kts | 117° |
| 2026-05-05 10:37 | 42.53515 | 18.33480 | 3818 ft | 193 kts | 124° |
| 2026-05-05 10:38 | 42.52539 | 18.34857 | 4212 ft | 213 kts | 142° |
| 2026-05-05 10:38 | 42.51186 | 18.35936 | 4528 ft | 240 kts | 158° |
| 2026-05-05 10:38 | 42.49488 | 18.36444 | 5066 ft | 258 kts | 178° |
| 2026-05-05 10:38 | 42.47700 | 18.36172 | 5902 ft | 264 kts | 194° |
| 2026-05-05 10:39 | 42.46048 | 18.35099 | 6720 ft | 265 kts | 213° |
| 2026-05-05 10:39 | 42.44677 | 18.33423 | 7518 ft | 266 kts | 221° |
| 2026-05-05 10:39 | 42.43240 | 18.31803 | 8269 ft | 271 kts | 217° |
| 2026-05-05 10:39 | 42.41665 | 18.30378 | 9015 ft | 274 kts | 210° |
| 2026-05-05 10:40 | 42.40018 | 18.29108 | 9763 ft | 278 kts | 208° |